Time;durP1;ratioP1;P1;durP2;ratioP2;P2;SDS_P1;SDS_P2;PMS_P1;PMS_P2;Temp;Humidity;BMP_temperature;BMP_pressure;BME280_temperature;BME280_humidity;BME280_pressure;Samples;Min_cycle;Max_cycle;Signal;HPM_P1;HPM_P2
2021/03/18 00:01:35;;;;;;;10.98;4.80;;;2.20;25.10;3.60;67067.00;;;;5059156;28;20432;-78
2021/03/18 00:04:04;;;;;;;7.25;4.22;;;2.30;24.80;217.30;158251.00;;;;5047043;28;20431;-79
2021/03/18 00:06:31;;;;;;;8.15;4.40;;;2.30;25.10;217.30;158174.00;;;;5066079;28;20539;-78
2021/03/18 00:08:59;;;;;;;7.32;3.70;;;2.30;26.10;217.30;158209.00;;;;5061085;28;20400;-78
2021/03/18 00:11:28;;;;;;;7.55;4.35;;;2.30;25.70;217.30;158070.00;;;;5057115;28;20413;-76
2021/03/18 00:13:58;;;;;;;8.25;4.50;;;2.10;26.60;217.30;158112.00;;;;5062327;28;20416;-76
2021/03/18 00:16:25;;;;;;;5.60;3.88;;;2.10;26.20;52.70;158076.00;;;;5082477;28;20405;-76
2021/03/18 00:18:54;;;;;;;7.53;4.40;;;2.00;26.10;217.30;158112.00;;;;5073523;28;20518;-78
2021/03/18 00:21:23;;;;;;;8.43;4.20;;;2.00;26.10;3.40;67005.00;;;;5092329;28;20446;-79
2021/03/18 00:23:51;;;;;;;6.38;3.60;;;1.90;26.00;3.30;67001.00;;;;5081834;28;20843;-78
2021/03/18 00:26:22;;;;;;;6.00;3.53;;;1.90;26.00;3.40;101391.00;;;;5068780;28;20428;-79
2021/03/18 00:28:49;;;;;;;7.30;4.38;;;2.00;26.40;217.30;158086.00;;;;5054988;28;20425;-78
2021/03/18 00:31:21;;;;;;;9.63;4.68;;;2.10;26.50;3.30;67016.00;;;;5047434;28;20455;-79
2021/03/18 00:33:49;;;;;;;8.77;4.47;;;2.00;27.90;3.40;66971.00;;;;5065509;28;21186;-81
2021/03/18 00:36:17;;;;;;;12.75;5.00;;;2.00;29.70;3.40;66995.00;;;;5052421;28;20508;-80
2021/03/18 00:38:45;;;;;;;8.77;4.40;;;2.00;31.30;217.30;158102.00;;;;5062097;28;20420;-77
2021/03/18 00:41:14;;;;;;;10.70;4.82;;;1.90;32.20;217.30;158102.00;;;;5042432;28;20864;-77
2021/03/18 00:43:42;;;;;;;11.05;5.00;;;1.80;32.80;217.30;157983.00;;;;5044205;28;20408;-78
2021/03/18 00:46:10;;;;;;;9.23;4.70;;;1.90;32.90;217.30;158080.00;;;;5044717;28;20892;-78
2021/03/18 00:48:44;;;;;;;11.98;5.50;;;1.80;32.70;217.30;158023.00;;;;5079790;28;20940;-79
2021/03/18 00:51:16;;;;;;;15.68;5.40;;;1.80;33.40;52.70;158009.00;;;;5052388;28;20420;-80
2021/03/18 00:53:47;;;;;;;13.32;5.47;;;1.70;33.30;3.20;66960.00;;;;5052591;28;20460;-78
2021/03/18 00:56:21;;;;;;;10.15;5.70;;;1.60;33.60;217.30;158023.00;;;;5070610;28;21268;-79
2021/03/18 00:58:56;;;;;;;10.20;4.97;;;1.60;34.70;217.30;158003.00;;;;5062693;28;20489;-77
2021/03/18 01:01:26;;;;;;;14.38;5.80;;;1.60;35.20;3.10;101364.00;;;;5064158;28;20512;-78
2021/03/18 01:03:57;;;;;;;12.77;7.20;;;1.60;35.10;217.30;157931.00;;;;5075310;28;20448;-79
2021/03/18 01:06:27;;;;;;;9.80;5.70;;;1.60;35.00;3.10;66934.00;;;;5059893;28;20478;-80
2021/03/18 01:08:58;;;;;;;17.67;7.60;;;1.50;35.40;217.30;157951.00;;;;5044384;28;20436;-78
2021/03/18 01:11:28;;;;;;;11.45;6.10;;;1.50;34.80;52.70;157916.00;;;;5052531;28;20495;-79
2021/03/18 01:13:59;;;;;;;17.67;7.45;;;1.40;34.50;217.30;157957.00;;;;5065138;28;20646;-78
2021/03/18 01:16:30;;;;;;;11.65;6.13;;;1.50;36.50;3.00;66921.00;;;;5061149;28;20427;-78
2021/03/18 01:19:02;;;;;;;11.30;6.10;;;1.50;36.10;3.00;66918.00;;;;5060600;28;21032;-78
2021/03/18 01:21:33;;;;;;;16.73;6.60;;;1.50;36.20;2.90;101378.00;;;;5081660;28;20453;-78
2021/03/18 01:24:01;;;;;;;14.93;7.13;;;1.40;36.30;217.30;157935.00;;;;5062461;28;20506;-80
2021/03/18 01:26:29;;;;;;;14.25;7.18;;;1.40;37.40;52.70;157941.00;;;;5043124;28;20455;-79
2021/03/18 01:28:56;;;;;;;22.08;8.35;;;1.40;37.30;217.30;157916.00;;;;5062274;28;20421;-78
2021/03/18 01:31:24;;;;;;;16.52;7.00;;;1.40;38.00;217.30;157902.00;;;;5044672;28;20455;-80
2021/03/18 01:33:51;;;;;;;15.95;6.35;;;1.30;38.10;2.80;66863.00;;;;5052699;28;21093;-79
2021/03/18 01:36:21;;;;;;;11.60;6.30;;;1.30;38.80;217.30;157876.00;;;;5039513;28;20415;-78
2021/03/18 01:38:48;;;;;;;13.52;6.72;;;1.30;39.50;2.80;66877.00;;;;5046223;28;20516;-82
2021/03/18 01:41:18;;;;;;;12.25;7.40;;;1.40;40.50;217.30;157870.00;;;;5039442;28;20511;-79
2021/03/18 01:43:46;;;;;;;11.77;6.80;;;1.40;41.30;217.30;157876.00;;;;5040146;28;20505;-79
2021/03/18 01:46:15;;;;;;;18.97;8.10;;;1.40;41.30;2.70;101365.00;;;;5046270;28;20851;-79
2021/03/18 01:48:43;;;;;;;13.25;6.90;;;1.30;41.10;2.70;101365.00;;;;5064307;28;20427;-79
2021/03/18 01:51:13;;;;;;;16.27;6.30;;;1.30;41.20;2.70;101373.00;;;;5042970;28;20907;-79
2021/03/18 01:53:42;;;;;;;14.35;6.40;;;1.20;41.80;217.30;157825.00;;;;5061323;28;20425;-80
2021/03/18 01:56:10;;;;;;;11.52;6.95;;;1.10;42.60;217.30;157777.00;;;;5058709;28;20457;-80
2021/03/18 01:58:38;;;;;;;12.35;6.40;;;1.10;43.80;2.60;66837.00;;;;5085202;28;20431;-80
2021/03/18 02:01:12;;;;;;;13.05;6.65;;;1.10;44.00;2.60;101386.00;;;;5086889;28;20427;-81
2021/03/18 02:03:40;;;;;;;15.20;6.80;;;1.10;43.80;217.30;157737.00;;;;5074060;28;20432;-83
2021/03/18 02:06:08;;;;;;;13.52;5.80;;;1.00;43.70;2.50;101366.00;;;;5069416;28;20423;-80
2021/03/18 02:08:35;;;;;;;10.03;6.70;;;0.90;44.60;52.70;157721.00;;;;5062304;28;20403;-80
2021/03/18 02:11:04;;;;;;;10.00;6.20;;;0.80;45.00;52.70;157737.00;;;;5062433;28;20917;-79
2021/03/18 02:13:32;;;;;;;12.48;6.47;;;0.90;45.80;2.50;101369.00;;;;5049803;28;20542;-78
2021/03/18 02:16:04;;;;;;;9.93;5.88;;;0.90;46.30;217.30;157624.00;;;;5042110;28;20458;-81
2021/03/18 02:18:47;;;;;;;11.30;6.40;;;0.90;46.00;217.30;157737.00;;;;5055453;28;20941;-79
2021/03/18 02:21:58;;;;;;;11.60;6.05;;;1.00;46.00;2.50;101376.00;;;;5062764;28;20415;-79
2021/03/18 02:24:41;;;;;;;13.65;7.25;;;1.00;47.30;2.50;101375.00;;;;5047224;28;20464;-80
2021/03/18 02:27:45;;;;;;;12.25;7.15;;;1.00;47.20;2.50;101360.00;;;;5045166;28;20455;-80
2021/03/18 02:30:48;;;;;;;11.88;7.50;;;1.00;48.00;2.40;101379.00;;;;5039564;28;20514;-82
2021/03/18 02:34:07;;;;;;;13.30;7.20;;;0.90;47.80;2.40;101376.00;;;;5056515;28;20419;-79
2021/03/18 02:36:37;;;;;;;12.38;6.75;;;0.90;48.50;2.40;101379.00;;;;5054267;28;20487;-80
2021/03/18 02:39:09;;;;;;;13.82;6.70;;;0.70;47.90;2.30;101384.00;;;;5074404;28;20454;-80
2021/03/18 02:41:41;;;;;;;11.75;6.90;;;0.70;47.60;2.30;66732.00;;;;5060316;28;20442;-81
2021/03/18 02:44:16;;;;;;;11.82;6.85;;;0.70;48.50;2.30;66771.00;;;;5064157;28;20457;-81
2021/03/18 02:46:45;;;;;;;13.90;7.30;;;0.70;49.60;2.30;101386.00;;;;5056942;28;20516;-80
2021/03/18 02:49:15;;;;;;;10.70;7.20;;;0.90;50.70;2.30;66753.00;;;;5064044;28;20421;-80
2021/03/18 02:51:44;;;;;;;11.77;6.40;;;0.80;51.00;217.30;157678.00;;;;5054756;28;20429;-80
2021/03/18 02:54:13;;;;;;;15.07;7.25;;;1.00;51.40;2.40;101376.00;;;;5038938;28;20458;-81
2021/03/18 02:56:46;;;;;;;15.02;7.20;;;0.90;51.00;217.30;157531.00;;;;5063141;28;20883;-79
2021/03/18 02:59:19;;;;;;;13.07;7.70;;;0.80;50.70;217.30;157608.00;;;;5037409;28;20462;-79
2021/03/18 03:01:47;;;;;;;14.18;7.35;;;0.80;51.00;217.30;157640.00;;;;5036078;28;20462;-81
2021/03/18 03:04:16;;;;;;;12.98;7.05;;;0.70;51.10;2.20;101364.00;;;;5039594;28;20425;-79
2021/03/18 03:06:44;;;;;;;17.50;7.60;;;0.70;51.50;2.20;66739.00;;;;5061379;28;20496;-80
2021/03/18 03:09:12;;;;;;;11.35;7.40;;;0.70;52.30;217.30;157593.00;;;;5039215;28;20438;-80
2021/03/18 03:11:41;;;;;;;13.75;7.60;;;0.70;52.80;217.30;157583.00;;;;5038976;28;20534;-79
2021/03/18 03:14:10;;;;;;;17.90;8.25;;;0.70;52.80;217.30;157618.00;;;;5035215;28;20421;-82
2021/03/18 03:16:38;;;;;;;19.85;8.60;;;0.70;52.80;217.30;157531.00;;;;5036412;28;20514;-79
2021/03/18 03:19:09;;;;;;;12.60;7.28;;;0.60;52.70;217.30;157599.00;;;;5039416;28;20421;-80
2021/03/18 03:21:37;;;;;;;14.05;7.50;;;0.60;54.10;52.70;157589.00;;;;5061536;28;21217;-79
2021/03/18 03:24:08;;;;;;;16.60;7.18;;;0.60;54.20;52.70;157583.00;;;;5041018;28;20514;-79
2021/03/18 03:26:36;;;;;;;14.13;7.18;;;0.60;54.60;217.30;157553.00;;;;5040531;28;20491;-81
2021/03/18 03:29:04;;;;;;;15.30;7.70;;;0.60;54.80;217.30;157577.00;;;;5067711;28;20451;-82
2021/03/18 03:31:32;;;;;;;10.60;7.50;;;0.60;54.70;217.30;157573.00;;;;5075882;28;20409;-80
2021/03/18 03:34:04;;;;;;;13.27;6.85;;;0.60;54.10;52.70;157537.00;;;;5067840;28;21236;-80
2021/03/18 03:36:32;;;;;;;10.23;7.80;;;0.60;54.20;217.30;157489.00;;;;5070366;28;20502;-82
2021/03/18 03:39:00;;;;;;;10.25;6.90;;;0.50;55.00;217.30;157557.00;;;;5069576;28;20451;-80
2021/03/18 03:41:28;;;;;;;13.88;8.10;;;0.50;55.70;2.00;66694.00;;;;5049316;28;21308;-80
2021/03/18 03:43:55;;;;;;;12.40;8.80;;;0.50;55.90;217.30;157473.00;;;;5057818;28;20452;-80
2021/03/18 03:46:23;;;;;;;19.98;8.20;;;0.50;56.00;52.70;157473.00;;;;5063244;28;20537;-79
2021/03/18 03:48:50;;;;;;;11.48;7.95;;;0.50;56.20;2.00;66699.00;;;;5040797;28;20440;-82
2021/03/18 03:51:18;;;;;;;15.27;7.77;;;0.50;55.80;217.30;157473.00;;;;5041550;28;20426;-81
2021/03/18 03:53:52;;;;;;;13.43;7.93;;;0.40;55.30;2.00;101374.00;;;;5056682;28;20420;-79
2021/03/18 03:56:28;;;;;;;12.85;7.53;;;0.50;55.70;2.00;101365.00;;;;5062473;28;21350;-81
2021/03/18 03:59:00;;;;;;;10.32;7.32;;;0.50;56.10;2.10;101286.00;;;;5064755;28;20432;-79
2021/03/18 04:01:32;;;;;;;11.90;7.60;;;0.50;56.00;52.70;157557.00;;;;5043273;28;20425;-80
2021/03/18 04:04:19;;;;;;;17.00;8.43;;;0.50;56.30;217.30;157547.00;;;;5052447;28;20940;-80
2021/03/18 04:06:52;;;;;;;16.77;8.43;;;0.50;56.70;217.30;157583.00;;;;5049707;28;20454;-81
2021/03/18 04:09:22;;;;;;;10.77;7.80;;;1.20;57.40;217.30;157505.00;;;;5039287;28;20493;-80
2021/03/18 04:11:51;;;;;;;13.23;7.65;;;0.70;56.70;2.20;101375.00;;;;5059345;28;20486;-81
2021/03/18 04:14:24;;;;;;;11.73;7.90;;;0.70;56.30;2.30;66759.00;;;;5047756;28;20415;-80
2021/03/18 04:16:53;;;;;;;12.15;8.35;;;0.80;56.30;2.40;66789.00;;;;5056273;28;20425;-81
2021/03/18 04:19:22;;;;;;;12.10;8.27;;;0.80;56.30;2.60;101366.00;;;;5057208;28;20419;-81
2021/03/18 04:21:52;;;;;;;15.55;8.88;;;0.90;55.70;217.30;157777.00;;;;5039593;28;20441;-80
2021/03/18 04:24:23;;;;;;;15.27;8.30;;;1.00;55.10;2.70;101364.00;;;;5065412;28;20456;-80
2021/03/18 04:26:51;;;;;;;18.55;8.82;;;1.00;54.90;2.60;66875.00;;;;5063509;28;20434;-79
2021/03/18 04:29:20;;;;;;;15.45;7.90;;;1.10;54.50;217.30;157803.00;;;;5047510;28;20960;-79
2021/03/18 04:31:48;;;;;;;16.10;8.60;;;1.20;54.40;217.30;157935.00;;;;5053709;28;20415;-79
2021/03/18 04:34:20;;;;;;;15.65;8.35;;;1.30;53.60;3.00;101371.00;;;;5053254;28;20426;-81
2021/03/18 04:36:47;;;;;;;18.98;8.48;;;1.30;53.30;217.30;157902.00;;;;5066158;28;20466;-80
2021/03/18 04:39:16;;;;;;;12.30;7.40;;;1.30;53.30;217.30;157892.00;;;;5041872;28;20423;-79
2021/03/18 04:41:45;;;;;;;14.13;7.85;;;1.30;52.80;3.00;101326.00;;;;5042383;28;22261;-79
2021/03/18 04:44:14;;;;;;;11.10;7.85;;;1.40;52.80;3.10;101355.00;;;;5057547;28;20997;-79
2021/03/18 04:46:47;;;;;;;12.43;7.70;;;1.30;52.80;217.30;157979.00;;;;5064347;28;20549;-79
2021/03/18 04:49:16;;;;;;;14.60;8.38;;;1.30;52.90;217.30;157967.00;;;;5048429;28;20431;-79
2021/03/18 04:51:45;;;;;;;13.88;7.68;;;1.20;53.20;217.30;158029.00;;;;5079636;28;20458;-82
2021/03/18 04:54:13;;;;;;;10.38;7.60;;;1.30;52.90;217.30;158051.00;;;;5084117;28;20444;-81
2021/03/18 04:56:44;;;;;;;12.45;8.82;;;1.40;52.60;217.30;158009.00;;;;5075533;28;20901;-80
2021/03/18 04:59:14;;;;;;;14.65;8.32;;;1.50;53.50;3.40;101351.00;;;;5053428;28;20570;-79
2021/03/18 05:01:44;;;;;;;18.38;7.82;;;1.80;52.80;217.30;158064.00;;;;5075715;28;20856;-81
2021/03/18 05:04:15;;;;;;;12.90;8.07;;;1.70;52.20;217.30;158039.00;;;;5059663;28;20453;-80
2021/03/18 05:06:46;;;;;;;16.38;7.95;;;1.70;51.90;217.30;158154.00;;;;5049418;28;20499;-80
2021/03/18 05:09:15;;;;;;;14.25;7.60;;;1.70;51.70;3.40;66980.00;;;;5050985;28;20457;-78
2021/03/18 05:11:44;;;;;;;17.95;7.53;;;1.70;51.90;3.30;66998.00;;;;5067160;28;21095;-81
2021/03/18 05:14:13;;;;;;;15.18;8.00;;;1.60;50.60;217.30;158102.00;;;;5073173;28;20483;-80
2021/03/18 05:16:41;;;;;;;16.60;7.80;;;1.50;51.80;3.30;101351.00;;;;5066963;28;21236;-81
2021/03/18 05:19:12;;;;;;;13.35;7.30;;;1.50;52.00;217.30;158118.00;;;;5054655;28;20508;-77
2021/03/18 05:21:43;;;;;;;13.98;7.68;;;1.70;51.70;217.30;158102.00;;;;5061123;28;20454;-78
2021/03/18 05:24:14;;;;;;;11.95;7.85;;;1.70;51.10;217.30;158154.00;;;;5079168;28;20442;-77
2021/03/18 05:26:43;;;;;;;10.70;7.00;;;1.70;50.80;3.50;67016.00;;;;5065456;28;20464;-78
2021/03/18 05:29:12;;;;;;;11.20;7.15;;;1.70;50.10;217.30;158102.00;;;;5045968;28;20427;-79
2021/03/18 05:31:40;;;;;;;17.52;7.80;;;1.70;49.70;217.30;158183.00;;;;5044764;28;20424;-77
2021/03/18 05:34:09;;;;;;;13.68;7.53;;;1.70;50.20;217.30;158193.00;;;;5066939;28;20443;-79
2021/03/18 05:36:38;;;;;;;11.10;7.25;;;1.70;49.80;3.50;101323.00;;;;5054572;28;20528;-79
2021/03/18 05:39:06;;;;;;;13.25;7.20;;;1.70;50.30;217.30;158183.00;;;;5073674;28;21342;-79
2021/03/18 05:41:36;;;;;;;17.85;8.70;;;1.70;49.90;217.30;158051.00;;;;5043955;28;20472;-80
2021/03/18 05:44:08;;;;;;;13.57;7.80;;;1.70;49.60;3.50;67040.00;;;;5050553;28;20561;-78
2021/03/18 05:46:36;;;;;;;14.40;8.10;;;1.80;49.70;217.30;158209.00;;;;5051606;28;20429;-80
2021/03/18 05:49:04;;;;;;;13.70;8.00;;;1.90;49.20;217.30;158164.00;;;;5069194;28;20427;-79
2021/03/18 05:51:34;;;;;;;14.35;7.50;;;2.00;48.80;3.70;67060.00;;;;5044755;28;20501;-78
2021/03/18 05:54:04;;;;;;;13.60;7.57;;;2.00;48.00;217.30;158261.00;;;;5045689;28;20434;-78
2021/03/18 05:56:34;;;;;;;13.40;7.80;;;2.00;47.60;217.30;158318.00;;;;5053472;28;21515;-80
2021/03/18 05:59:02;;;;;;;12.25;7.80;;;2.60;48.20;217.30;158308.00;;;;5072037;28;20427;-80
2021/03/18 06:01:29;;;;;;;12.50;7.70;;;2.10;47.70;3.90;67127.00;;;;5052890;28;20405;-78
2021/03/18 06:03:58;;;;;;;11.43;8.13;;;2.20;47.50;217.30;158366.00;;;;5078450;28;20508;-79
2021/03/18 06:06:27;;;;;;;14.73;8.07;;;2.10;46.20;3.90;67115.00;;;;5060023;28;20449;-79
2021/03/18 06:08:55;;;;;;;18.77;9.85;;;2.20;46.90;52.70;158366.00;;;;5062791;28;20470;-79
2021/03/18 06:11:22;;;;;;;15.60;8.85;;;2.10;48.30;217.30;158382.00;;;;5073950;28;20425;-80
2021/03/18 06:13:52;;;;;;;13.07;9.20;;;2.10;47.30;217.30;158261.00;;;;5057711;28;20432;-79
2021/03/18 06:16:20;;;;;;;13.63;8.90;;;2.10;48.50;217.30;158380.00;;;;5051138;28;20562;-79
2021/03/18 06:18:48;;;;;;;12.47;8.27;;;2.30;47.90;217.30;158459.00;;;;5062673;28;20429;-81
2021/03/18 06:21:16;;;;;;;16.90;9.23;;;2.30;46.40;217.30;158473.00;;;;5072541;28;20429;-79
2021/03/18 06:24:00;;;;;;;16.98;9.50;;;2.40;44.90;52.70;158412.00;;;;5055438;28;20449;-80
2021/03/18 06:26:34;;;;;;;15.75;8.70;;;2.60;43.90;217.30;158562.00;;;;5056220;28;20482;-79
2021/03/18 06:29:02;;;;;;;12.57;8.70;;;2.50;42.10;217.30;158588.00;;;;5080821;28;20983;-80
2021/03/18 06:31:30;;;;;;;12.77;8.98;;;2.50;42.30;4.60;67250.00;;;;5060861;28;20493;-79
2021/03/18 06:33:58;;;;;;;15.55;9.93;;;3.00;42.40;217.30;158665.00;;;;5063469;28;20438;-79
2021/03/18 06:36:28;;;;;;;12.77;9.20;;;2.80;41.40;217.30;158780.00;;;;5081155;28;20439;-78
2021/03/18 06:39:04;;;;;;;15.90;8.98;;;3.00;41.00;5.20;67388.00;;;;5080605;28;20447;-79
2021/03/18 06:41:35;;;;;;;13.18;9.60;;;3.20;41.10;217.30;159012.00;;;;5080780;28;20476;-76
2021/03/18 06:44:04;;;;;;;13.70;9.13;;;3.40;40.10;217.30;159086.00;;;;5087195;28;20460;-78
2021/03/18 06:46:32;;;;;;;14.90;9.30;;;3.70;38.20;52.70;159024.00;;;;5062840;28;20485;-77
2021/03/18 06:49:12;;;;;;;14.60;9.50;;;3.70;36.70;217.30;159155.00;;;;5082484;28;20424;-76
2021/03/18 06:51:41;;;;;;;13.40;9.23;;;3.80;35.50;217.30;159159.00;;;;5073906;28;20433;-80
2021/03/18 06:54:20;;;;;;;14.82;9.43;;;3.80;35.90;217.30;159175.00;;;;5064345;28;20425;-79
2021/03/18 06:56:56;;;;;;;14.15;9.30;;;4.00;35.50;6.20;101328.00;;;;5053422;28;20484;-80
2021/03/18 06:59:28;;;;;;;14.07;9.32;;;4.20;34.10;6.30;67679.00;;;;5055520;28;20841;-80
2021/03/18 07:02:04;;;;;;;12.70;9.20;;;4.40;29.90;217.30;159383.00;;;;5058045;28;20413;-80
2021/03/18 07:04:40;;;;;;;13.80;9.75;;;4.30;28.50;217.30;159300.00;;;;5052911;28;20404;-78
2021/03/18 07:07:10;;;;;;;14.00;9.40;;;4.30;29.90;6.30;67657.00;;;;5060364;28;20433;-78
2021/03/18 07:09:41;;;;;;;12.98;10.10;;;4.30;27.90;217.30;159181.00;;;;5078482;28;20442;-80
2021/03/18 07:12:12;;;;;;;11.77;9.23;;;4.30;27.50;217.30;159306.00;;;;5063356;28;20472;-77
2021/03/18 07:14:43;;;;;;;11.50;9.35;;;4.30;27.60;6.40;67671.00;;;;5086309;28;20413;-77
2021/03/18 07:17:17;;;;;;;15.20;9.25;;;4.40;27.60;217.30;159373.00;;;;5068960;28;20443;-77
2021/03/18 07:19:45;;;;;;;13.00;9.23;;;4.30;27.50;217.30;159337.00;;;;5083730;28;20415;-77
2021/03/18 07:22:18;;;;;;;11.77;9.15;;;4.20;27.50;217.30;159248.00;;;;5085977;28;20424;-76
2021/03/18 07:24:53;;;;;;;14.27;9.68;;;4.10;27.60;217.30;159300.00;;;;5066968;28;20432;-76
2021/03/18 07:27:21;;;;;;;10.52;9.10;;;4.40;27.00;6.30;67651.00;;;;5077599;28;20493;-79
2021/03/18 07:29:50;;;;;;;15.23;9.30;;;4.40;26.40;6.50;101309.00;;;;5065145;28;20480;-76
2021/03/18 07:32:18;;;;;;;12.00;9.32;;;4.60;24.90;217.30;159534.00;;;;5044365;28;20523;-78
2021/03/18 07:34:46;;;;;;;10.05;8.75;;;4.70;24.80;217.30;159629.00;;;;5052497;28;20948;-80
2021/03/18 07:37:13;;;;;;;13.38;8.75;;;4.90;23.50;52.70;159645.00;;;;5063060;28;20423;-79
2021/03/18 07:39:42;;;;;;;13.68;9.02;;;5.10;22.20;6.90;67794.00;;;;5054232;28;20429;-79
2021/03/18 07:42:11;;;;;;;9.98;8.32;;;4.90;21.40;6.90;67797.00;;;;5071183;28;20423;-80
2021/03/18 07:44:42;;;;;;;12.10;8.65;;;4.90;21.80;52.70;159589.00;;;;5046939;28;20468;-80
2021/03/18 07:47:11;;;;;;;11.18;9.13;;;4.90;21.50;217.30;159639.00;;;;5045488;28;20471;-78
2021/03/18 07:49:43;;;;;;;10.88;8.90;;;4.90;21.50;217.30;159619.00;;;;5066330;28;20519;-79
2021/03/18 07:52:18;;;;;;;12.30;8.63;;;4.90;21.60;52.70;159534.00;;;;5067078;28;20441;-79
2021/03/18 07:54:47;;;;;;;11.77;8.07;;;4.90;21.90;7.00;67799.00;;;;5066801;28;20450;-79
2021/03/18 07:57:16;;;;;;;12.68;8.52;;;5.00;21.80;6.90;67794.00;;;;5067202;28;20458;-79
2021/03/18 07:59:46;;;;;;;11.45;8.23;;;5.00;19.30;217.30;159619.00;;;;5063987;28;20429;-81
2021/03/18 08:02:16;;;;;;;13.63;8.70;;;5.10;19.80;217.30;159556.00;;;;5048397;28;20426;-78
2021/03/18 08:04:46;;;;;;;12.40;8.77;;;5.00;19.00;52.70;159453.00;;;;5066807;28;20413;-79
2021/03/18 08:07:39;;;;;;;10.10;8.05;;;5.00;19.00;217.30;159583.00;;;;5080372;28;20434;-79
2021/03/18 08:10:10;;;;;;;9.77;7.55;;;4.90;19.70;6.90;67794.00;;;;5079470;28;20431;-77
2021/03/18 08:12:50;;;;;;;12.05;7.88;;;5.00;18.60;7.10;67804.00;;;;5079605;28;20417;-78
2021/03/18 08:15:30;;;;;;;14.93;9.73;;;5.20;17.60;7.50;101298.00;;;;5069656;28;20449;-78
2021/03/18 08:18:39;;;;;;;14.00;8.38;;;5.50;17.50;7.80;67985.00;;;;5082970;28;20432;-81
2021/03/18 08:21:13;;;;;;;15.75;8.82;;;5.80;15.80;7.60;67954.00;;;;5089257;28;20447;-78
2021/03/18 08:23:55;;;;;;;16.63;8.90;;;5.90;15.20;7.90;67996.00;;;;5067264;28;20496;-80
2021/03/18 08:26:48;;;;;;;12.82;8.45;;;6.00;15.10;7.80;101301.00;;;;5054846;28;20431;-82
2021/03/18 08:29:24;;;;;;;12.25;8.98;;;5.90;15.20;7.80;67980.00;;;;5050270;28;20416;-80
2021/03/18 08:32:02;;;;;;;13.75;8.85;;;6.00;15.20;7.80;101301.00;;;;5072477;28;20442;-78
2021/03/18 08:34:51;;;;;;;12.52;8.82;;;6.00;15.30;217.30;160103.00;;;;5060993;28;20432;-77
2021/03/18 08:37:41;;;;;;;16.08;9.63;;;6.10;15.30;217.30;160055.00;;;;5078958;28;20414;-77
2021/03/18 08:40:27;;;;;;;10.40;8.35;;;6.20;13.50;8.10;68025.00;;;;5091293;28;20411;-77
2021/03/18 08:43:03;;;;;;;19.08;9.43;;;6.30;13.30;217.30;160198.00;;;;5054366;28;20424;-81
2021/03/18 08:45:43;;;;;;;18.00;9.15;;;6.50;13.10;8.20;68074.00;;;;5075793;28;20483;-80
2021/03/18 08:48:20;;;;;;;15.07;8.55;;;6.40;13.10;8.10;101294.00;;;;5077324;28;20432;-78
2021/03/18 08:50:53;;;;;;;13.17;8.97;;;6.50;13.00;8.20;101281.00;;;;5073328;28;20423;-78
2021/03/18 08:53:39;;;;;;;15.82;8.80;;;6.50;12.90;8.10;68033.00;;;;5068295;28;20463;-80
2021/03/18 08:56:08;;;;;;;18.08;9.10;;;6.60;12.60;8.10;101285.00;;;;5076394;28;20423;-76
2021/03/18 08:58:55;;;;;;;15.93;9.00;;;6.50;12.00;8.10;68061.00;;;;5077693;28;20417;-78
2021/03/18 09:01:25;;;;;;;13.63;8.40;;;6.60;12.40;217.30;160224.00;;;;5082673;28;20445;-78
2021/03/18 09:03:58;;;;;;;14.85;8.68;;;6.60;11.60;8.20;101293.00;;;;5057750;28;20544;-79
2021/03/18 09:06:30;;;;;;;13.25;8.77;;;6.60;10.80;8.20;101060.00;;;;5057398;28;20425;-79
2021/03/18 09:09:00;;;;;;;11.45;8.15;;;6.60;11.10;217.30;160071.00;;;;5048110;28;20430;-80
2021/03/18 09:11:28;;;;;;;12.85;7.60;;;6.60;11.00;217.30;160160.00;;;;5055072;28;20420;-80
2021/03/18 09:13:56;;;;;;;11.07;7.60;;;6.60;11.60;217.30;160172.00;;;;5070662;28;20433;-78
2021/03/18 09:16:25;;;;;;;14.05;8.50;;;6.70;11.00;217.30;160212.00;;;;5056685;28;20436;-78
2021/03/18 09:19:00;;;;;;;13.07;8.60;;;6.80;11.10;8.20;68066.00;;;;5067105;28;20416;-81
2021/03/18 09:21:39;;;;;;;10.80;8.20;;;6.90;11.00;217.30;160224.00;;;;5056230;28;20984;-81
2021/03/18 09:24:09;;;;;;;15.60;8.17;;;7.00;10.80;8.60;68173.00;;;;5067572;28;20417;-80
2021/03/18 09:26:40;;;;;;;14.68;8.50;;;7.10;10.40;8.80;68216.00;;;;5052974;28;20421;-78
2021/03/18 09:29:07;;;;;;;12.90;8.90;;;7.30;10.00;217.30;160561.00;;;;5065504;28;20438;-78
2021/03/18 09:31:36;;;;;;;12.43;8.80;;;7.40;9.30;217.30;160577.00;;;;5083714;28;20451;-77
2021/03/18 09:34:04;;;;;;;13.57;9.23;;;7.60;9.20;9.50;68386.00;;;;5078578;28;20440;-78
2021/03/18 09:36:33;;;;;;;13.00;9.98;;;8.00;8.10;10.00;68462.00;;;;5047498;28;21273;-79
2021/03/18 09:39:06;;;;;;;12.30;9.68;;;8.20;7.10;10.40;101271.00;;;;5054691;28;20415;-80
2021/03/18 09:41:36;;;;;;;13.10;9.35;;;8.50;5.90;10.60;101261.00;;;;5070328;28;20450;-78
2021/03/18 09:44:08;;;;;;;13.13;9.40;;;8.70;5.40;10.80;101201.00;;;;5066436;28;20891;-81
2021/03/18 09:46:38;;;;;;;11.85;8.90;;;8.80;5.00;11.20;101262.00;;;;5058542;28;20919;-78
2021/03/18 09:49:07;;;;;;;13.13;8.82;;;9.10;4.10;52.70;161567.00;;;;5043939;28;20455;-78
2021/03/18 09:51:38;;;;;;;14.10;9.10;;;9.40;3.20;11.80;101264.00;;;;5041779;28;20839;-81
2021/03/18 09:54:08;;;;;;;14.43;9.85;;;9.70;2.90;11.50;68839.00;;;;5060707;28;20456;-80
2021/03/18 09:56:38;;;;;;;17.98;9.52;;;9.70;2.90;11.80;101253.00;;;;5061310;28;20425;-79
2021/03/18 09:59:08;;;;;;;16.02;9.75;;;9.80;2.30;11.90;101234.00;;;;5060671;28;20426;-81
2021/03/18 10:01:36;;;;;;;14.10;9.10;;;9.90;2.20;12.10;101252.00;;;;5064433;28;20851;-78
2021/03/18 10:04:07;;;;;;;14.60;9.00;;;10.10;1.00;11.90;101243.00;;;;5040399;28;20425;-78
2021/03/18 10:06:40;;;;;;;12.05;9.10;;;10.10;1.00;217.30;161856.00;;;;5047321;28;20433;-79
2021/03/18 10:09:26;;;;;;;11.10;9.80;;;9.90;1.10;11.80;101244.00;;;;5042887;28;20504;-80
2021/03/18 10:12:02;;;;;;;17.42;9.98;;;9.80;1.70;11.50;68817.00;;;;5065017;28;20427;-79
2021/03/18 10:14:33;;;;;;;15.75;10.50;;;9.60;1.50;11.20;101228.00;;;;5048775;28;20421;-78
2021/03/18 10:17:10;;;;;;;16.67;10.38;;;9.30;1.50;11.10;101225.00;;;;5051164;28;20437;-78
2021/03/18 10:19:44;;;;;;;12.23;10.05;;;9.20;3.00;11.30;101219.00;;;;5041926;28;20550;-80
2021/03/18 10:22:13;;;;;;;14.18;9.50;;;9.40;2.80;11.00;101204.00;;;;5048339;28;20441;-77
2021/03/18 10:24:41;;;;;;;13.40;9.15;;;9.30;2.00;10.70;101212.00;;;;5057004;28;20411;-80
2021/03/18 10:27:12;;;;;;;13.40;9.60;;;9.00;3.50;10.60;101205.00;;;;5063263;28;20431;-79
2021/03/18 10:29:40;;;;;;;10.50;9.23;;;9.00;3.90;10.50;101185.00;;;;5056638;28;20930;-76
2021/03/18 10:32:11;;;;;;;12.20;9.60;;;9.00;3.60;10.60;101237.00;;;;5036263;28;20501;-77
2021/03/18 10:34:40;;;;;;;13.20;10.32;;;8.90;4.30;10.40;101216.00;;;;5053491;28;20442;-77
2021/03/18 10:37:27;;;;;;;14.15;10.05;;;8.80;3.60;10.40;101221.00;;;;5042199;28;20423;-78
2021/03/18 10:40:11;;;;;;;10.85;9.65;;;8.80;3.70;11.20;101210.00;;;;5046296;28;20459;-79
2021/03/18 10:42:39;;;;;;;10.30;9.30;;;9.30;3.40;11.50;101206.00;;;;5060947;28;20422;-79
2021/03/18 10:45:26;;;;;;;10.90;9.70;;;9.60;3.10;11.70;68859.00;;;;5041441;28;20499;-79
2021/03/18 10:48:03;;;;;;;10.52;9.23;;;9.80;1.90;12.10;101165.00;;;;5072477;28;20452;-78
2021/03/18 10:50:34;;;;;;;11.00;9.27;;;10.20;1.00;12.20;101199.00;;;;5052798;28;20425;-79
2021/03/18 10:53:05;;;;;;;12.82;9.18;;;10.20;1.00;12.20;101193.00;;;;5062526;28;20424;-80
2021/03/18 10:55:36;;;;;;;10.10;9.10;;;10.30;1.00;52.70;161888.00;;;;5059940;28;20474;-77
2021/03/18 10:58:06;;;;;;;11.55;9.00;;;10.10;1.00;11.70;101200.00;;;;5045715;28;20425;-78
2021/03/18 11:00:37;;;;;;;12.73;9.30;;;9.80;1.00;11.60;101193.00;;;;5059924;28;20479;-78
2021/03/18 11:03:12;;;;;;;16.40;10.10;;;9.70;1.40;11.70;68865.00;;;;5065930;28;20437;-79
2021/03/18 11:05:44;;;;;;;11.55;10.07;;;9.80;1.50;11.60;101188.00;;;;5069105;28;20405;-78
2021/03/18 11:08:14;;;;;;;12.45;9.60;;;9.70;1.20;11.70;101117.00;;;;5078574;28;20443;-79
2021/03/18 11:10:47;;;;;;;13.48;9.60;;;9.80;1.00;12.00;101183.00;;;;5078934;28;20422;-80